<?xml version="1.0" encoding="UTF-8" standalone="no" ?>
<gpx xmlns="http://www.topografix.com/GPX/1/1" xmlns:xsi="http://www.w3.org/2001/XMLSchema-instance" xsi:schemaLocation="http://www.topografix.com/GPX/1/1 http://www.topografix.com/GPX/1/1/gpx.xsd" version="1.1" creator="VisuGPX - https://www.visugpx.com">
  <metadata>
    <name>11950087-ALPE D'HUEZ G3</name>
  </metadata>
  <trk>
    <name><![CDATA[11950087-ALPE D'HUEZ G3]]></name>
    <trkseg>
      <trkpt lat="45.10805" lon="6.07028">
        <ele>1969</ele>
        <time>2020-09-07T17:58:13Z</time>
      </trkpt>
      <trkpt lat="45.10787" lon="6.07023">
        <ele>1968</ele>
        <time>2020-09-07T17:58:37Z</time>
      </trkpt>
      <trkpt lat="45.10803" lon="6.07032">
        <ele>1969</ele>
        <time>2020-09-07T17:59:00Z</time>
      </trkpt>
      <trkpt lat="45.10815" lon="6.07047">
        <ele>1969</ele>
        <time>2020-09-07T17:59:22Z</time>
      </trkpt>
      <trkpt lat="45.10833" lon="6.07057">
        <ele>1970</ele>
        <time>2020-09-07T17:59:48Z</time>
      </trkpt>
      <trkpt lat="45.10849" lon="6.07075">
        <ele>1970</ele>
        <time>2020-09-07T18:00:15Z</time>
      </trkpt>
      <trkpt lat="45.10864" lon="6.07112">
        <ele>1970</ele>
        <time>2020-09-07T18:00:55Z</time>
      </trkpt>
      <trkpt lat="45.10879" lon="6.07136">
        <ele>1970</ele>
        <time>2020-09-07T18:01:25Z</time>
      </trkpt>
      <trkpt lat="45.10883" lon="6.07149">
        <ele>1970</ele>
        <time>2020-09-07T18:01:39Z</time>
      </trkpt>
      <trkpt lat="45.10888" lon="6.07175">
        <ele>1970</ele>
        <time>2020-09-07T18:02:04Z</time>
      </trkpt>
      <trkpt lat="45.10891" lon="6.07198">
        <ele>1971</ele>
        <time>2020-09-07T18:02:26Z</time>
      </trkpt>
      <trkpt lat="45.10895" lon="6.07219">
        <ele>1971</ele>
        <time>2020-09-07T18:02:47Z</time>
      </trkpt>
      <trkpt lat="45.10898" lon="6.07269">
        <ele>1974</ele>
        <time>2020-09-07T18:03:34Z</time>
      </trkpt>
      <trkpt lat="45.10907" lon="6.0731">
        <ele>1978</ele>
        <time>2020-09-07T18:04:14Z</time>
      </trkpt>
      <trkpt lat="45.10917" lon="6.07327">
        <ele>1979</ele>
        <time>2020-09-07T18:04:35Z</time>
      </trkpt>
      <trkpt lat="45.10946" lon="6.07354">
        <ele>1982</ele>
        <time>2020-09-07T18:05:21Z</time>
      </trkpt>
      <trkpt lat="45.10949" lon="6.0736">
        <ele>1983</ele>
        <time>2020-09-07T18:05:28Z</time>
      </trkpt>
      <trkpt lat="45.1095" lon="6.0737">
        <ele>1984</ele>
        <time>2020-09-07T18:05:38Z</time>
      </trkpt>
      <trkpt lat="45.10947" lon="6.07376">
        <ele>1985</ele>
        <time>2020-09-07T18:05:45Z</time>
      </trkpt>
      <trkpt lat="45.10915" lon="6.07424">
        <ele>1989</ele>
        <time>2020-09-07T18:06:47Z</time>
      </trkpt>
      <trkpt lat="45.10891" lon="6.0748">
        <ele>1991</ele>
        <time>2020-09-07T18:07:49Z</time>
      </trkpt>
      <trkpt lat="45.10876" lon="6.07502">
        <ele>1991</ele>
        <time>2020-09-07T18:08:17Z</time>
      </trkpt>
      <trkpt lat="45.1087" lon="6.07528">
        <ele>1993</ele>
        <time>2020-09-07T18:08:43Z</time>
      </trkpt>
      <trkpt lat="45.1087" lon="6.07535">
        <ele>1993</ele>
        <time>2020-09-07T18:08:50Z</time>
      </trkpt>
      <trkpt lat="45.10858" lon="6.0757">
        <ele>1995</ele>
        <time>2020-09-07T18:09:26Z</time>
      </trkpt>
      <trkpt lat="45.10858" lon="6.07582">
        <ele>1996</ele>
        <time>2020-09-07T18:09:38Z</time>
      </trkpt>
      <trkpt lat="45.10854" lon="6.07586">
        <ele>1996</ele>
        <time>2020-09-07T18:09:44Z</time>
      </trkpt>
      <trkpt lat="45.10841" lon="6.07597">
        <ele>1995</ele>
        <time>2020-09-07T18:10:04Z</time>
      </trkpt>
      <trkpt lat="45.10825" lon="6.07626">
        <ele>1995</ele>
        <time>2020-09-07T18:10:39Z</time>
      </trkpt>
      <trkpt lat="45.10812" lon="6.07659">
        <ele>1997</ele>
        <time>2020-09-07T18:11:15Z</time>
      </trkpt>
      <trkpt lat="45.1081" lon="6.07674">
        <ele>1997</ele>
        <time>2020-09-07T18:11:29Z</time>
      </trkpt>
      <trkpt lat="45.1081" lon="6.07685">
        <ele>1996</ele>
        <time>2020-09-07T18:11:39Z</time>
      </trkpt>
      <trkpt lat="45.10826" lon="6.07703">
        <ele>1995</ele>
        <time>2020-09-07T18:12:07Z</time>
      </trkpt>
      <trkpt lat="45.10829" lon="6.0771">
        <ele>1994</ele>
        <time>2020-09-07T18:12:14Z</time>
      </trkpt>
      <trkpt lat="45.10829" lon="6.07715">
        <ele>1994</ele>
        <time>2020-09-07T18:12:19Z</time>
      </trkpt>
      <trkpt lat="45.10801" lon="6.07822">
        <ele>1990</ele>
        <time>2020-09-07T18:14:07Z</time>
      </trkpt>
      <trkpt lat="45.10796" lon="6.07852">
        <ele>1991</ele>
        <time>2020-09-07T18:14:36Z</time>
      </trkpt>
      <trkpt lat="45.10794" lon="6.07889">
        <ele>1992</ele>
        <time>2020-09-07T18:15:11Z</time>
      </trkpt>
      <trkpt lat="45.10796" lon="6.07913">
        <ele>1992</ele>
        <time>2020-09-07T18:15:33Z</time>
      </trkpt>
      <trkpt lat="45.1081" lon="6.07959">
        <ele>1992</ele>
        <time>2020-09-07T18:16:21Z</time>
      </trkpt>
      <trkpt lat="45.10814" lon="6.07966">
        <ele>1992</ele>
        <time>2020-09-07T18:16:29Z</time>
      </trkpt>
      <trkpt lat="45.10821" lon="6.07967">
        <ele>1989</ele>
        <time>2020-09-07T18:16:38Z</time>
      </trkpt>
      <trkpt lat="45.10825" lon="6.07963">
        <ele>1987</ele>
        <time>2020-09-07T18:16:45Z</time>
      </trkpt>
      <trkpt lat="45.10824" lon="6.07947">
        <ele>1985</ele>
        <time>2020-09-07T18:17:00Z</time>
      </trkpt>
      <trkpt lat="45.10832" lon="6.07891">
        <ele>1978</ele>
        <time>2020-09-07T18:17:54Z</time>
      </trkpt>
      <trkpt lat="45.10841" lon="6.07863">
        <ele>1974</ele>
        <time>2020-09-07T18:18:23Z</time>
      </trkpt>
      <trkpt lat="45.10848" lon="6.07853">
        <ele>1971</ele>
        <time>2020-09-07T18:18:36Z</time>
      </trkpt>
      <trkpt lat="45.10853" lon="6.07852">
        <ele>1968</ele>
        <time>2020-09-07T18:18:43Z</time>
      </trkpt>
      <trkpt lat="45.10857" lon="6.07857">
        <ele>1967</ele>
        <time>2020-09-07T18:18:50Z</time>
      </trkpt>
      <trkpt lat="45.10862" lon="6.0789">
        <ele>1966</ele>
        <time>2020-09-07T18:19:22Z</time>
      </trkpt>
      <trkpt lat="45.10865" lon="6.07901">
        <ele>1965</ele>
        <time>2020-09-07T18:19:33Z</time>
      </trkpt>
      <trkpt lat="45.10867" lon="6.07901">
        <ele>1965</ele>
        <time>2020-09-07T18:19:36Z</time>
      </trkpt>
      <trkpt lat="45.10865" lon="6.07948">
        <ele>1973</ele>
        <time>2020-09-07T18:20:20Z</time>
      </trkpt>
      <trkpt lat="45.10865" lon="6.07948">
        <ele>1973</ele>
        <time>2020-09-07T18:20:20Z</time>
      </trkpt>
      <trkpt lat="45.10899" lon="6.07975">
        <ele>1972</ele>
        <time>2020-09-07T18:21:12Z</time>
      </trkpt>
      <trkpt lat="45.10899" lon="6.07975">
        <ele>1972</ele>
        <time>2020-09-07T18:21:12Z</time>
      </trkpt>
      <trkpt lat="45.10921" lon="6.08014">
        <ele>1981</ele>
        <time>2020-09-07T18:21:59Z</time>
      </trkpt>
      <trkpt lat="45.10921" lon="6.08014">
        <ele>1981</ele>
        <time>2020-09-07T18:21:59Z</time>
      </trkpt>
      <trkpt lat="45.10916" lon="6.08034">
        <ele>1989</ele>
        <time>2020-09-07T18:22:19Z</time>
      </trkpt>
      <trkpt lat="45.10916" lon="6.08034">
        <ele>1989</ele>
        <time>2020-09-07T18:22:19Z</time>
      </trkpt>
      <trkpt lat="45.10894" lon="6.08052">
        <ele>1998</ele>
        <time>2020-09-07T18:22:53Z</time>
      </trkpt>
      <trkpt lat="45.10894" lon="6.08052">
        <ele>1998</ele>
        <time>2020-09-07T18:22:53Z</time>
      </trkpt>
      <trkpt lat="45.10891" lon="6.08095">
        <ele>2012</ele>
        <time>2020-09-07T18:23:34Z</time>
      </trkpt>
      <trkpt lat="45.10891" lon="6.08095">
        <ele>2012</ele>
        <time>2020-09-07T18:23:34Z</time>
      </trkpt>
      <trkpt lat="45.10875" lon="6.08125">
        <ele>2019</ele>
        <time>2020-09-07T18:24:09Z</time>
      </trkpt>
      <trkpt lat="45.10875" lon="6.08125">
        <ele>2019</ele>
        <time>2020-09-07T18:24:09Z</time>
      </trkpt>
      <trkpt lat="45.10885" lon="6.08148">
        <ele>2023</ele>
        <time>2020-09-07T18:24:35Z</time>
      </trkpt>
      <trkpt lat="45.10885" lon="6.08148">
        <ele>2023</ele>
        <time>2020-09-07T18:24:35Z</time>
      </trkpt>
      <trkpt lat="45.10857" lon="6.08213">
        <ele>2031</ele>
        <time>2020-09-07T18:25:46Z</time>
      </trkpt>
      <trkpt lat="45.10856" lon="6.0821">
        <ele>2031</ele>
        <time>2020-09-07T18:25:49Z</time>
      </trkpt>
      <trkpt lat="45.10882" lon="6.08211">
        <ele>2030</ele>
        <time>2020-09-07T18:26:24Z</time>
      </trkpt>
      <trkpt lat="45.10895" lon="6.08208">
        <ele>2029</ele>
        <time>2020-09-07T18:26:42Z</time>
      </trkpt>
      <trkpt lat="45.10908" lon="6.08207">
        <ele>2029</ele>
        <time>2020-09-07T18:26:59Z</time>
      </trkpt>
      <trkpt lat="45.1092" lon="6.08216">
        <ele>2029</ele>
        <time>2020-09-07T18:27:17Z</time>
      </trkpt>
      <trkpt lat="45.10926" lon="6.08233">
        <ele>2031</ele>
        <time>2020-09-07T18:27:35Z</time>
      </trkpt>
      <trkpt lat="45.10928" lon="6.08251">
        <ele>2033</ele>
        <time>2020-09-07T18:27:52Z</time>
      </trkpt>
      <trkpt lat="45.10928" lon="6.08257">
        <ele>2033</ele>
        <time>2020-09-07T18:27:58Z</time>
      </trkpt>
      <trkpt lat="45.1093" lon="6.08294">
        <ele>2034</ele>
        <time>2020-09-07T18:28:33Z</time>
      </trkpt>
      <trkpt lat="45.10939" lon="6.08324">
        <ele>2035</ele>
        <time>2020-09-07T18:29:04Z</time>
      </trkpt>
      <trkpt lat="45.10963" lon="6.08333">
        <ele>2037</ele>
        <time>2020-09-07T18:29:37Z</time>
      </trkpt>
      <trkpt lat="45.10978" lon="6.08333">
        <ele>2038</ele>
        <time>2020-09-07T18:29:57Z</time>
      </trkpt>
      <trkpt lat="45.11004" lon="6.08352">
        <ele>2042</ele>
        <time>2020-09-07T18:30:36Z</time>
      </trkpt>
      <trkpt lat="45.1103" lon="6.08367">
        <ele>2044</ele>
        <time>2020-09-07T18:31:13Z</time>
      </trkpt>
      <trkpt lat="45.11074" lon="6.0838">
        <ele>2047</ele>
        <time>2020-09-07T18:32:13Z</time>
      </trkpt>
      <trkpt lat="45.1108" lon="6.08404">
        <ele>2046</ele>
        <time>2020-09-07T18:32:37Z</time>
      </trkpt>
      <trkpt lat="45.11092" lon="6.08429">
        <ele>2048</ele>
        <time>2020-09-07T18:33:06Z</time>
      </trkpt>
      <trkpt lat="45.11115" lon="6.08439">
        <ele>2050</ele>
        <time>2020-09-07T18:33:38Z</time>
      </trkpt>
      <trkpt lat="45.11139" lon="6.08458">
        <ele>2052</ele>
        <time>2020-09-07T18:34:14Z</time>
      </trkpt>
      <trkpt lat="45.11181" lon="6.08478">
        <ele>2055</ele>
        <time>2020-09-07T18:35:14Z</time>
      </trkpt>
      <trkpt lat="45.11223" lon="6.08507">
        <ele>2059</ele>
        <time>2020-09-07T18:36:16Z</time>
      </trkpt>
      <trkpt lat="45.11241" lon="6.08512">
        <ele>2061</ele>
        <time>2020-09-07T18:36:40Z</time>
      </trkpt>
      <trkpt lat="45.11287" lon="6.08542">
        <ele>2068</ele>
        <time>2020-09-07T18:37:48Z</time>
      </trkpt>
      <trkpt lat="45.11328" lon="6.08554">
        <ele>2072</ele>
        <time>2020-09-07T18:38:44Z</time>
      </trkpt>
      <trkpt lat="45.11376" lon="6.0858">
        <ele>2074</ele>
        <time>2020-09-07T18:39:52Z</time>
      </trkpt>
      <trkpt lat="45.11394" lon="6.08596">
        <ele>2076</ele>
        <time>2020-09-07T18:40:21Z</time>
      </trkpt>
      <trkpt lat="45.11416" lon="6.08599">
        <ele>2078</ele>
        <time>2020-09-07T18:40:50Z</time>
      </trkpt>
      <trkpt lat="45.1144" lon="6.0862">
        <ele>2080</ele>
        <time>2020-09-07T18:41:28Z</time>
      </trkpt>
      <trkpt lat="45.11466" lon="6.0863">
        <ele>2081</ele>
        <time>2020-09-07T18:42:04Z</time>
      </trkpt>
      <trkpt lat="45.11499" lon="6.08634">
        <ele>2082</ele>
        <time>2020-09-07T18:42:48Z</time>
      </trkpt>
      <trkpt lat="45.1151" lon="6.08624">
        <ele>2081</ele>
        <time>2020-09-07T18:43:06Z</time>
      </trkpt>
      <trkpt lat="45.11542" lon="6.08659">
        <ele>2082</ele>
        <time>2020-09-07T18:43:59Z</time>
      </trkpt>
      <trkpt lat="45.11583" lon="6.08695">
        <ele>2080</ele>
        <time>2020-09-07T18:45:04Z</time>
      </trkpt>
      <trkpt lat="45.11582" lon="6.08704">
        <ele>2080</ele>
        <time>2020-09-07T18:45:12Z</time>
      </trkpt>
      <trkpt lat="45.11583" lon="6.08695">
        <ele>2080</ele>
        <time>2020-09-07T18:45:21Z</time>
      </trkpt>
      <trkpt lat="45.11606" lon="6.0872">
        <ele>2077</ele>
        <time>2020-09-07T18:46:00Z</time>
      </trkpt>
      <trkpt lat="45.11624" lon="6.08731">
        <ele>2076</ele>
        <time>2020-09-07T18:46:26Z</time>
      </trkpt>
      <trkpt lat="45.11645" lon="6.08737">
        <ele>2074</ele>
        <time>2020-09-07T18:46:54Z</time>
      </trkpt>
      <trkpt lat="45.11655" lon="6.08702">
        <ele>2075</ele>
        <time>2020-09-07T18:47:30Z</time>
      </trkpt>
      <trkpt lat="45.11668" lon="6.08701">
        <ele>2074</ele>
        <time>2020-09-07T18:47:47Z</time>
      </trkpt>
      <trkpt lat="45.11682" lon="6.08683">
        <ele>2074</ele>
        <time>2020-09-07T18:48:13Z</time>
      </trkpt>
      <trkpt lat="45.11701" lon="6.08669">
        <ele>2073</ele>
        <time>2020-09-07T18:48:41Z</time>
      </trkpt>
      <trkpt lat="45.11708" lon="6.08668">
        <ele>2072</ele>
        <time>2020-09-07T18:48:51Z</time>
      </trkpt>
      <trkpt lat="45.11713" lon="6.0867">
        <ele>2072</ele>
        <time>2020-09-07T18:48:57Z</time>
      </trkpt>
      <trkpt lat="45.11717" lon="6.08668">
        <ele>2071</ele>
        <time>2020-09-07T18:49:03Z</time>
      </trkpt>
      <trkpt lat="45.11731" lon="6.08673">
        <ele>2070</ele>
        <time>2020-09-07T18:49:22Z</time>
      </trkpt>
      <trkpt lat="45.11735" lon="6.08672">
        <ele>2070</ele>
        <time>2020-09-07T18:49:28Z</time>
      </trkpt>
      <trkpt lat="45.11743" lon="6.08665">
        <ele>2069</ele>
        <time>2020-09-07T18:49:40Z</time>
      </trkpt>
      <trkpt lat="45.11745" lon="6.08656">
        <ele>2068</ele>
        <time>2020-09-07T18:49:49Z</time>
      </trkpt>
      <trkpt lat="45.11751" lon="6.08655">
        <ele>2068</ele>
        <time>2020-09-07T18:49:57Z</time>
      </trkpt>
      <trkpt lat="45.1176" lon="6.08645">
        <ele>2067</ele>
        <time>2020-09-07T18:50:13Z</time>
      </trkpt>
      <trkpt lat="45.11761" lon="6.08641">
        <ele>2066</ele>
        <time>2020-09-07T18:50:17Z</time>
      </trkpt>
      <trkpt lat="45.11768" lon="6.08639">
        <ele>2066</ele>
        <time>2020-09-07T18:50:26Z</time>
      </trkpt>
      <trkpt lat="45.1178" lon="6.08647">
        <ele>2067</ele>
        <time>2020-09-07T18:50:44Z</time>
      </trkpt>
      <trkpt lat="45.11789" lon="6.08648">
        <ele>2067</ele>
        <time>2020-09-07T18:50:56Z</time>
      </trkpt>
      <trkpt lat="45.11806" lon="6.08664">
        <ele>2069</ele>
        <time>2020-09-07T18:51:23Z</time>
      </trkpt>
      <trkpt lat="45.11814" lon="6.08668">
        <ele>2069</ele>
        <time>2020-09-07T18:51:34Z</time>
      </trkpt>
      <trkpt lat="45.11822" lon="6.08667">
        <ele>2069</ele>
        <time>2020-09-07T18:51:45Z</time>
      </trkpt>
      <trkpt lat="45.11825" lon="6.08662">
        <ele>2068</ele>
        <time>2020-09-07T18:51:51Z</time>
      </trkpt>
      <trkpt lat="45.1184" lon="6.08671">
        <ele>2069</ele>
        <time>2020-09-07T18:52:13Z</time>
      </trkpt>
      <trkpt lat="45.11847" lon="6.08668">
        <ele>2070</ele>
        <time>2020-09-07T18:52:23Z</time>
      </trkpt>
      <trkpt lat="45.11855" lon="6.08657">
        <ele>2069</ele>
        <time>2020-09-07T18:52:38Z</time>
      </trkpt>
      <trkpt lat="45.11877" lon="6.08662">
        <ele>2071</ele>
        <time>2020-09-07T18:53:07Z</time>
      </trkpt>
      <trkpt lat="45.11883" lon="6.08657">
        <ele>2070</ele>
        <time>2020-09-07T18:53:17Z</time>
      </trkpt>
      <trkpt lat="45.11889" lon="6.08655">
        <ele>2071</ele>
        <time>2020-09-07T18:53:25Z</time>
      </trkpt>
      <trkpt lat="45.11899" lon="6.08673">
        <ele>2072</ele>
        <time>2020-09-07T18:53:46Z</time>
      </trkpt>
      <trkpt lat="45.11905" lon="6.08679">
        <ele>2072</ele>
        <time>2020-09-07T18:53:56Z</time>
      </trkpt>
      <trkpt lat="45.11913" lon="6.08682">
        <ele>2073</ele>
        <time>2020-09-07T18:54:07Z</time>
      </trkpt>
      <trkpt lat="45.11923" lon="6.0868">
        <ele>2073</ele>
        <time>2020-09-07T18:54:21Z</time>
      </trkpt>
      <trkpt lat="45.11937" lon="6.0868">
        <ele>2075</ele>
        <time>2020-09-07T18:54:39Z</time>
      </trkpt>
      <trkpt lat="45.1197" lon="6.087">
        <ele>2077</ele>
        <time>2020-09-07T18:55:27Z</time>
      </trkpt>
      <trkpt lat="45.11984" lon="6.08712">
        <ele>2078</ele>
        <time>2020-09-07T18:55:49Z</time>
      </trkpt>
      <trkpt lat="45.11997" lon="6.08737">
        <ele>2080</ele>
        <time>2020-09-07T18:56:18Z</time>
      </trkpt>
      <trkpt lat="45.12012" lon="6.08774">
        <ele>2080</ele>
        <time>2020-09-07T18:56:59Z</time>
      </trkpt>
      <trkpt lat="45.12012" lon="6.0878">
        <ele>2080</ele>
        <time>2020-09-07T18:57:04Z</time>
      </trkpt>
      <trkpt lat="45.12017" lon="6.08783">
        <ele>2080</ele>
        <time>2020-09-07T18:57:12Z</time>
      </trkpt>
      <trkpt lat="45.12018" lon="6.08791">
        <ele>2079</ele>
        <time>2020-09-07T18:57:19Z</time>
      </trkpt>
      <trkpt lat="45.12026" lon="6.088">
        <ele>2079</ele>
        <time>2020-09-07T18:57:33Z</time>
      </trkpt>
      <trkpt lat="45.12033" lon="6.08803">
        <ele>2079</ele>
        <time>2020-09-07T18:57:43Z</time>
      </trkpt>
      <trkpt lat="45.12036" lon="6.08799">
        <ele>2080</ele>
        <time>2020-09-07T18:57:48Z</time>
      </trkpt>
      <trkpt lat="45.12044" lon="6.08799">
        <ele>2080</ele>
        <time>2020-09-07T18:57:59Z</time>
      </trkpt>
      <trkpt lat="45.12057" lon="6.08806">
        <ele>2080</ele>
        <time>2020-09-07T18:58:17Z</time>
      </trkpt>
      <trkpt lat="45.12077" lon="6.08833">
        <ele>2079</ele>
        <time>2020-09-07T18:58:54Z</time>
      </trkpt>
      <trkpt lat="45.12097" lon="6.08844">
        <ele>2081</ele>
        <time>2020-09-07T18:59:23Z</time>
      </trkpt>
      <trkpt lat="45.12115" lon="6.08848">
        <ele>2083</ele>
        <time>2020-09-07T18:59:47Z</time>
      </trkpt>
      <trkpt lat="45.12127" lon="6.08855">
        <ele>2085</ele>
        <time>2020-09-07T19:00:04Z</time>
      </trkpt>
      <trkpt lat="45.12172" lon="6.08862">
        <ele>2088</ele>
        <time>2020-09-07T19:01:05Z</time>
      </trkpt>
      <trkpt lat="45.12215" lon="6.08858">
        <ele>2087</ele>
        <time>2020-09-07T19:02:02Z</time>
      </trkpt>
      <trkpt lat="45.12225" lon="6.0886">
        <ele>2086</ele>
        <time>2020-09-07T19:02:16Z</time>
      </trkpt>
      <trkpt lat="45.12231" lon="6.08856">
        <ele>2086</ele>
        <time>2020-09-07T19:02:25Z</time>
      </trkpt>
      <trkpt lat="45.12236" lon="6.08858">
        <ele>2086</ele>
        <time>2020-09-07T19:02:32Z</time>
      </trkpt>
      <trkpt lat="45.12235" lon="6.08864">
        <ele>2086</ele>
        <time>2020-09-07T19:02:37Z</time>
      </trkpt>
      <trkpt lat="45.1225" lon="6.08866">
        <ele>2086</ele>
        <time>2020-09-07T19:02:58Z</time>
      </trkpt>
      <trkpt lat="45.12254" lon="6.08862">
        <ele>2086</ele>
        <time>2020-09-07T19:03:04Z</time>
      </trkpt>
      <trkpt lat="45.12257" lon="6.08865">
        <ele>2085</ele>
        <time>2020-09-07T19:03:09Z</time>
      </trkpt>
      <trkpt lat="45.1227" lon="6.08862">
        <ele>2085</ele>
        <time>2020-09-07T19:03:27Z</time>
      </trkpt>
      <trkpt lat="45.12273" lon="6.08866">
        <ele>2085</ele>
        <time>2020-09-07T19:03:32Z</time>
      </trkpt>
      <trkpt lat="45.12308" lon="6.08862">
        <ele>2083</ele>
        <time>2020-09-07T19:04:19Z</time>
      </trkpt>
      <trkpt lat="45.12322" lon="6.08855">
        <ele>2083</ele>
        <time>2020-09-07T19:04:39Z</time>
      </trkpt>
      <trkpt lat="45.12322" lon="6.08853">
        <ele>2083</ele>
        <time>2020-09-07T19:04:41Z</time>
      </trkpt>
      <trkpt lat="45.12335" lon="6.08858">
        <ele>2082</ele>
        <time>2020-09-07T19:04:59Z</time>
      </trkpt>
      <trkpt lat="45.1234" lon="6.08855">
        <ele>2082</ele>
        <time>2020-09-07T19:05:06Z</time>
      </trkpt>
      <trkpt lat="45.12353" lon="6.08861">
        <ele>2080</ele>
        <time>2020-09-07T19:05:24Z</time>
      </trkpt>
      <trkpt lat="45.12369" lon="6.08862">
        <ele>2078</ele>
        <time>2020-09-07T19:05:45Z</time>
      </trkpt>
      <trkpt lat="45.1238" lon="6.08866">
        <ele>2077</ele>
        <time>2020-09-07T19:06:01Z</time>
      </trkpt>
      <trkpt lat="45.12404" lon="6.08865">
        <ele>2074</ele>
        <time>2020-09-07T19:06:33Z</time>
      </trkpt>
      <trkpt lat="45.1241" lon="6.08858">
        <ele>2073</ele>
        <time>2020-09-07T19:06:43Z</time>
      </trkpt>
      <trkpt lat="45.12412" lon="6.08862">
        <ele>2073</ele>
        <time>2020-09-07T19:06:48Z</time>
      </trkpt>
      <trkpt lat="45.12417" lon="6.08858">
        <ele>2073</ele>
        <time>2020-09-07T19:06:55Z</time>
      </trkpt>
      <trkpt lat="45.12422" lon="6.08863">
        <ele>2072</ele>
        <time>2020-09-07T19:07:03Z</time>
      </trkpt>
      <trkpt lat="45.12425" lon="6.08859">
        <ele>2072</ele>
        <time>2020-09-07T19:07:09Z</time>
      </trkpt>
      <trkpt lat="45.12434" lon="6.0886">
        <ele>2071</ele>
        <time>2020-09-07T19:07:21Z</time>
      </trkpt>
      <trkpt lat="45.12436" lon="6.08856">
        <ele>2071</ele>
        <time>2020-09-07T19:07:26Z</time>
      </trkpt>
      <trkpt lat="45.12444" lon="6.08858">
        <ele>2070</ele>
        <time>2020-09-07T19:07:36Z</time>
      </trkpt>
      <trkpt lat="45.12455" lon="6.08845">
        <ele>2068</ele>
        <time>2020-09-07T19:07:56Z</time>
      </trkpt>
      <trkpt lat="45.12469" lon="6.08845">
        <ele>2067</ele>
        <time>2020-09-07T19:08:14Z</time>
      </trkpt>
      <trkpt lat="45.12469" lon="6.08842">
        <ele>2066</ele>
        <time>2020-09-07T19:08:17Z</time>
      </trkpt>
      <trkpt lat="45.12477" lon="6.08839">
        <ele>2065</ele>
        <time>2020-09-07T19:08:28Z</time>
      </trkpt>
      <trkpt lat="45.12482" lon="6.08847">
        <ele>2065</ele>
        <time>2020-09-07T19:08:38Z</time>
      </trkpt>
      <trkpt lat="45.12491" lon="6.08851">
        <ele>2064</ele>
        <time>2020-09-07T19:08:51Z</time>
      </trkpt>
      <trkpt lat="45.12496" lon="6.08848">
        <ele>2064</ele>
        <time>2020-09-07T19:08:58Z</time>
      </trkpt>
      <trkpt lat="45.12506" lon="6.08846">
        <ele>2063</ele>
        <time>2020-09-07T19:09:11Z</time>
      </trkpt>
      <trkpt lat="45.12514" lon="6.08849">
        <ele>2063</ele>
        <time>2020-09-07T19:09:22Z</time>
      </trkpt>
      <trkpt lat="45.12521" lon="6.08845">
        <ele>2063</ele>
        <time>2020-09-07T19:09:33Z</time>
      </trkpt>
      <trkpt lat="45.1253" lon="6.08849">
        <ele>2063</ele>
        <time>2020-09-07T19:09:45Z</time>
      </trkpt>
      <trkpt lat="45.12537" lon="6.08845">
        <ele>2063</ele>
        <time>2020-09-07T19:09:55Z</time>
      </trkpt>
      <trkpt lat="45.12554" lon="6.08846">
        <ele>2063</ele>
        <time>2020-09-07T19:10:18Z</time>
      </trkpt>
      <trkpt lat="45.1257" lon="6.08853">
        <ele>2063</ele>
        <time>2020-09-07T19:10:40Z</time>
      </trkpt>
      <trkpt lat="45.12581" lon="6.08849">
        <ele>2062</ele>
        <time>2020-09-07T19:10:55Z</time>
      </trkpt>
      <trkpt lat="45.12605" lon="6.08848">
        <ele>2063</ele>
        <time>2020-09-07T19:11:27Z</time>
      </trkpt>
      <trkpt lat="45.12617" lon="6.08851">
        <ele>2064</ele>
        <time>2020-09-07T19:11:44Z</time>
      </trkpt>
      <trkpt lat="45.12643" lon="6.0887">
        <ele>2066</ele>
        <time>2020-09-07T19:12:23Z</time>
      </trkpt>
      <trkpt lat="45.12669" lon="6.08908">
        <ele>2069</ele>
        <time>2020-09-07T19:13:13Z</time>
      </trkpt>
      <trkpt lat="45.12699" lon="6.08912">
        <ele>2073</ele>
        <time>2020-09-07T19:13:53Z</time>
      </trkpt>
      <trkpt lat="45.12716" lon="6.08933">
        <ele>2076</ele>
        <time>2020-09-07T19:14:23Z</time>
      </trkpt>
      <trkpt lat="45.12728" lon="6.08937">
        <ele>2077</ele>
        <time>2020-09-07T19:14:39Z</time>
      </trkpt>
      <trkpt lat="45.12746" lon="6.08953">
        <ele>2079</ele>
        <time>2020-09-07T19:15:08Z</time>
      </trkpt>
      <trkpt lat="45.12766" lon="6.08954">
        <ele>2080</ele>
        <time>2020-09-07T19:15:34Z</time>
      </trkpt>
      <trkpt lat="45.12809" lon="6.08978">
        <ele>2083</ele>
        <time>2020-09-07T19:16:36Z</time>
      </trkpt>
      <trkpt lat="45.12845" lon="6.08996">
        <ele>2086</ele>
        <time>2020-09-07T19:17:27Z</time>
      </trkpt>
      <trkpt lat="45.12871" lon="6.09012">
        <ele>2088</ele>
        <time>2020-09-07T19:18:05Z</time>
      </trkpt>
      <trkpt lat="45.12893" lon="6.09017">
        <ele>2090</ele>
        <time>2020-09-07T19:18:35Z</time>
      </trkpt>
      <trkpt lat="45.12912" lon="6.09033">
        <ele>2091</ele>
        <time>2020-09-07T19:19:04Z</time>
      </trkpt>
      <trkpt lat="45.12934" lon="6.09046">
        <ele>2092</ele>
        <time>2020-09-07T19:19:36Z</time>
      </trkpt>
      <trkpt lat="45.12975" lon="6.09052">
        <ele>2093</ele>
        <time>2020-09-07T19:20:31Z</time>
      </trkpt>
      <trkpt lat="45.13029" lon="6.09088">
        <ele>2091</ele>
        <time>2020-09-07T19:21:51Z</time>
      </trkpt>
      <trkpt lat="45.13063" lon="6.09107">
        <ele>2088</ele>
        <time>2020-09-07T19:22:39Z</time>
      </trkpt>
      <trkpt lat="45.13091" lon="6.09116">
        <ele>2084</ele>
        <time>2020-09-07T19:23:18Z</time>
      </trkpt>
      <trkpt lat="45.13131" lon="6.09135">
        <ele>2079</ele>
        <time>2020-09-07T19:24:14Z</time>
      </trkpt>
      <trkpt lat="45.13146" lon="6.09153">
        <ele>2077</ele>
        <time>2020-09-07T19:24:40Z</time>
      </trkpt>
      <trkpt lat="45.13172" lon="6.0915">
        <ele>2074</ele>
        <time>2020-09-07T19:25:15Z</time>
      </trkpt>
      <trkpt lat="45.13175" lon="6.09154">
        <ele>2074</ele>
        <time>2020-09-07T19:25:20Z</time>
      </trkpt>
      <trkpt lat="45.13208" lon="6.09166">
        <ele>2068</ele>
        <time>2020-09-07T19:26:06Z</time>
      </trkpt>
      <trkpt lat="45.13216" lon="6.09158">
        <ele>2066</ele>
        <time>2020-09-07T19:26:19Z</time>
      </trkpt>
      <trkpt lat="45.13235" lon="6.09166">
        <ele>2063</ele>
        <time>2020-09-07T19:26:45Z</time>
      </trkpt>
      <trkpt lat="45.13264" lon="6.09169">
        <ele>2058</ele>
        <time>2020-09-07T19:27:24Z</time>
      </trkpt>
      <trkpt lat="45.13267" lon="6.09182">
        <ele>2059</ele>
        <time>2020-09-07T19:27:37Z</time>
      </trkpt>
      <trkpt lat="45.13277" lon="6.09189">
        <ele>2058</ele>
        <time>2020-09-07T19:27:52Z</time>
      </trkpt>
      <trkpt lat="45.13326" lon="6.09196">
        <ele>2052</ele>
        <time>2020-09-07T19:28:58Z</time>
      </trkpt>
      <trkpt lat="45.13331" lon="6.09204">
        <ele>2052</ele>
        <time>2020-09-07T19:29:08Z</time>
      </trkpt>
      <trkpt lat="45.13353" lon="6.09212">
        <ele>2050</ele>
        <time>2020-09-07T19:29:38Z</time>
      </trkpt>
      <trkpt lat="45.1337" lon="6.09222">
        <ele>2048</ele>
        <time>2020-09-07T19:30:03Z</time>
      </trkpt>
      <trkpt lat="45.1338" lon="6.0922">
        <ele>2047</ele>
        <time>2020-09-07T19:30:16Z</time>
      </trkpt>
      <trkpt lat="45.13385" lon="6.09213">
        <ele>2045</ele>
        <time>2020-09-07T19:30:25Z</time>
      </trkpt>
      <trkpt lat="45.13404" lon="6.09226">
        <ele>2043</ele>
        <time>2020-09-07T19:30:54Z</time>
      </trkpt>
      <trkpt lat="45.13407" lon="6.09231">
        <ele>2043</ele>
        <time>2020-09-07T19:31:00Z</time>
      </trkpt>
      <trkpt lat="45.13409" lon="6.09238">
        <ele>2043</ele>
        <time>2020-09-07T19:31:07Z</time>
      </trkpt>
      <trkpt lat="45.13428" lon="6.09239">
        <ele>2041</ele>
        <time>2020-09-07T19:31:32Z</time>
      </trkpt>
      <trkpt lat="45.13433" lon="6.0925">
        <ele>2041</ele>
        <time>2020-09-07T19:31:45Z</time>
      </trkpt>
      <trkpt lat="45.13464" lon="6.09254">
        <ele>2039</ele>
        <time>2020-09-07T19:32:26Z</time>
      </trkpt>
      <trkpt lat="45.13476" lon="6.09266">
        <ele>2040</ele>
        <time>2020-09-07T19:32:46Z</time>
      </trkpt>
      <trkpt lat="45.13488" lon="6.09268">
        <ele>2039</ele>
        <time>2020-09-07T19:33:02Z</time>
      </trkpt>
      <trkpt lat="45.13498" lon="6.09267">
        <ele>2038</ele>
        <time>2020-09-07T19:33:15Z</time>
      </trkpt>
      <trkpt lat="45.13526" lon="6.09295">
        <ele>2041</ele>
        <time>2020-09-07T19:34:01Z</time>
      </trkpt>
      <trkpt lat="45.13538" lon="6.09321">
        <ele>2044</ele>
        <time>2020-09-07T19:34:30Z</time>
      </trkpt>
      <trkpt lat="45.13552" lon="6.09327">
        <ele>2045</ele>
        <time>2020-09-07T19:34:50Z</time>
      </trkpt>
      <trkpt lat="45.13566" lon="6.09329">
        <ele>2044</ele>
        <time>2020-09-07T19:35:09Z</time>
      </trkpt>
      <trkpt lat="45.13582" lon="6.09327">
        <ele>2043</ele>
        <time>2020-09-07T19:35:30Z</time>
      </trkpt>
      <trkpt lat="45.13593" lon="6.09335">
        <ele>2044</ele>
        <time>2020-09-07T19:35:46Z</time>
      </trkpt>
      <trkpt lat="45.13638" lon="6.09339">
        <ele>2046</ele>
        <time>2020-09-07T19:36:47Z</time>
      </trkpt>
      <trkpt lat="45.13689" lon="6.09368">
        <ele>2049</ele>
        <time>2020-09-07T19:38:00Z</time>
      </trkpt>
      <trkpt lat="45.13703" lon="6.09373">
        <ele>2048</ele>
        <time>2020-09-07T19:38:19Z</time>
      </trkpt>
      <trkpt lat="45.13727" lon="6.09366">
        <ele>2045</ele>
        <time>2020-09-07T19:38:52Z</time>
      </trkpt>
      <trkpt lat="45.13752" lon="6.09368">
        <ele>2043</ele>
        <time>2020-09-07T19:39:25Z</time>
      </trkpt>
      <trkpt lat="45.13774" lon="6.09364">
        <ele>2041</ele>
        <time>2020-09-07T19:39:55Z</time>
      </trkpt>
      <trkpt lat="45.13802" lon="6.09375">
        <ele>2041</ele>
        <time>2020-09-07T19:40:34Z</time>
      </trkpt>
      <trkpt lat="45.13808" lon="6.09373">
        <ele>2041</ele>
        <time>2020-09-07T19:40:42Z</time>
      </trkpt>
      <trkpt lat="45.13813" lon="6.09377">
        <ele>2041</ele>
        <time>2020-09-07T19:40:50Z</time>
      </trkpt>
      <trkpt lat="45.13826" lon="6.09376">
        <ele>2040</ele>
        <time>2020-09-07T19:41:07Z</time>
      </trkpt>
      <trkpt lat="45.13834" lon="6.0938">
        <ele>2040</ele>
        <time>2020-09-07T19:41:18Z</time>
      </trkpt>
      <trkpt lat="45.13843" lon="6.09377">
        <ele>2041</ele>
        <time>2020-09-07T19:41:31Z</time>
      </trkpt>
      <trkpt lat="45.13861" lon="6.0938">
        <ele>2042</ele>
        <time>2020-09-07T19:41:55Z</time>
      </trkpt>
      <trkpt lat="45.13883" lon="6.09364">
        <ele>2043</ele>
        <time>2020-09-07T19:42:28Z</time>
      </trkpt>
      <trkpt lat="45.13883" lon="6.09396">
        <ele>2045</ele>
        <time>2020-09-07T19:42:58Z</time>
      </trkpt>
      <trkpt lat="45.13888" lon="6.09425">
        <ele>2046</ele>
        <time>2020-09-07T19:43:26Z</time>
      </trkpt>
      <trkpt lat="45.13895" lon="6.09459">
        <ele>2044</ele>
        <time>2020-09-07T19:43:59Z</time>
      </trkpt>
      <trkpt lat="45.13892" lon="6.09475">
        <ele>2043</ele>
        <time>2020-09-07T19:44:15Z</time>
      </trkpt>
      <trkpt lat="45.1388" lon="6.09498">
        <ele>2042</ele>
        <time>2020-09-07T19:44:42Z</time>
      </trkpt>
      <trkpt lat="45.13867" lon="6.0954">
        <ele>2046</ele>
        <time>2020-09-07T19:45:25Z</time>
      </trkpt>
      <trkpt lat="45.13867" lon="6.09543">
        <ele>2046</ele>
        <time>2020-09-07T19:45:28Z</time>
      </trkpt>
      <trkpt lat="45.13857" lon="6.09568">
        <ele>2049</ele>
        <time>2020-09-07T19:45:55Z</time>
      </trkpt>
      <trkpt lat="45.13857" lon="6.09575">
        <ele>2050</ele>
        <time>2020-09-07T19:46:02Z</time>
      </trkpt>
      <trkpt lat="45.13873" lon="6.09597">
        <ele>2053</ele>
        <time>2020-09-07T19:46:31Z</time>
      </trkpt>
      <trkpt lat="45.13882" lon="6.09601">
        <ele>2053</ele>
        <time>2020-09-07T19:46:44Z</time>
      </trkpt>
      <trkpt lat="45.13906" lon="6.09607">
        <ele>2052</ele>
        <time>2020-09-07T19:47:16Z</time>
      </trkpt>
      <trkpt lat="45.13917" lon="6.09603">
        <ele>2050</ele>
        <time>2020-09-07T19:47:32Z</time>
      </trkpt>
      <trkpt lat="45.13929" lon="6.09607">
        <ele>2049</ele>
        <time>2020-09-07T19:47:48Z</time>
      </trkpt>
      <trkpt lat="45.13932" lon="6.09611">
        <ele>2049</ele>
        <time>2020-09-07T19:47:53Z</time>
      </trkpt>
      <trkpt lat="45.13932" lon="6.09619">
        <ele>2051</ele>
        <time>2020-09-07T19:48:01Z</time>
      </trkpt>
      <trkpt lat="45.13928" lon="6.09637">
        <ele>2055</ele>
        <time>2020-09-07T19:48:19Z</time>
      </trkpt>
      <trkpt lat="45.13928" lon="6.09662">
        <ele>2059</ele>
        <time>2020-09-07T19:48:42Z</time>
      </trkpt>
      <trkpt lat="45.13944" lon="6.09694">
        <ele>2061</ele>
        <time>2020-09-07T19:49:19Z</time>
      </trkpt>
      <trkpt lat="45.13942" lon="6.09703">
        <ele>2063</ele>
        <time>2020-09-07T19:49:28Z</time>
      </trkpt>
      <trkpt lat="45.1393" lon="6.09708">
        <ele>2066</ele>
        <time>2020-09-07T19:49:45Z</time>
      </trkpt>
      <trkpt lat="45.13915" lon="6.09706">
        <ele>2069</ele>
        <time>2020-09-07T19:50:05Z</time>
      </trkpt>
      <trkpt lat="45.13886" lon="6.09697">
        <ele>2071</ele>
        <time>2020-09-07T19:50:45Z</time>
      </trkpt>
      <trkpt lat="45.13873" lon="6.09702">
        <ele>2074</ele>
        <time>2020-09-07T19:51:02Z</time>
      </trkpt>
      <trkpt lat="45.13858" lon="6.09719">
        <ele>2079</ele>
        <time>2020-09-07T19:51:28Z</time>
      </trkpt>
      <trkpt lat="45.1379" lon="6.09731">
        <ele>2091</ele>
        <time>2020-09-07T19:53:00Z</time>
      </trkpt>
      <trkpt lat="45.13758" lon="6.09727">
        <ele>2094</ele>
        <time>2020-09-07T19:53:42Z</time>
      </trkpt>
      <trkpt lat="45.13698" lon="6.09707">
        <ele>2103</ele>
        <time>2020-09-07T19:55:05Z</time>
      </trkpt>
      <trkpt lat="45.13644" lon="6.09664">
        <ele>2099</ele>
        <time>2020-09-07T19:56:27Z</time>
      </trkpt>
      <trkpt lat="45.13623" lon="6.09654">
        <ele>2099</ele>
        <time>2020-09-07T19:56:57Z</time>
      </trkpt>
      <trkpt lat="45.13587" lon="6.09655">
        <ele>2102</ele>
        <time>2020-09-07T19:57:45Z</time>
      </trkpt>
      <trkpt lat="45.1356" lon="6.09651">
        <ele>2104</ele>
        <time>2020-09-07T19:58:21Z</time>
      </trkpt>
      <trkpt lat="45.13536" lon="6.09634">
        <ele>2103</ele>
        <time>2020-09-07T19:58:57Z</time>
      </trkpt>
      <trkpt lat="45.13527" lon="6.09617">
        <ele>2100</ele>
        <time>2020-09-07T19:59:17Z</time>
      </trkpt>
      <trkpt lat="45.13503" lon="6.09591">
        <ele>2095</ele>
        <time>2020-09-07T19:59:57Z</time>
      </trkpt>
      <trkpt lat="45.13481" lon="6.09586">
        <ele>2096</ele>
        <time>2020-09-07T20:00:27Z</time>
      </trkpt>
      <trkpt lat="45.13457" lon="6.09577">
        <ele>2096</ele>
        <time>2020-09-07T20:01:00Z</time>
      </trkpt>
      <trkpt lat="45.13433" lon="6.09571">
        <ele>2098</ele>
        <time>2020-09-07T20:01:33Z</time>
      </trkpt>
      <trkpt lat="45.13415" lon="6.09576">
        <ele>2100</ele>
        <time>2020-09-07T20:01:57Z</time>
      </trkpt>
      <trkpt lat="45.13393" lon="6.09579">
        <ele>2105</ele>
        <time>2020-09-07T20:02:27Z</time>
      </trkpt>
      <trkpt lat="45.13381" lon="6.09575">
        <ele>2107</ele>
        <time>2020-09-07T20:02:43Z</time>
      </trkpt>
      <trkpt lat="45.13373" lon="6.09561">
        <ele>2105</ele>
        <time>2020-09-07T20:03:00Z</time>
      </trkpt>
      <trkpt lat="45.13366" lon="6.09538">
        <ele>2101</ele>
        <time>2020-09-07T20:03:24Z</time>
      </trkpt>
      <trkpt lat="45.13345" lon="6.09518">
        <ele>2100</ele>
        <time>2020-09-07T20:03:57Z</time>
      </trkpt>
      <trkpt lat="45.13326" lon="6.09473">
        <ele>2096</ele>
        <time>2020-09-07T20:04:47Z</time>
      </trkpt>
      <trkpt lat="45.13306" lon="6.09443">
        <ele>2097</ele>
        <time>2020-09-07T20:05:26Z</time>
      </trkpt>
      <trkpt lat="45.13291" lon="6.0943">
        <ele>2098</ele>
        <time>2020-09-07T20:05:49Z</time>
      </trkpt>
      <trkpt lat="45.13274" lon="6.09429">
        <ele>2099</ele>
        <time>2020-09-07T20:06:12Z</time>
      </trkpt>
      <trkpt lat="45.13219" lon="6.09432">
        <ele>2107</ele>
        <time>2020-09-07T20:07:25Z</time>
      </trkpt>
      <trkpt lat="45.13188" lon="6.09436">
        <ele>2113</ele>
        <time>2020-09-07T20:08:07Z</time>
      </trkpt>
      <trkpt lat="45.13141" lon="6.09436">
        <ele>2120</ele>
        <time>2020-09-07T20:09:10Z</time>
      </trkpt>
      <trkpt lat="45.13125" lon="6.09431">
        <ele>2121</ele>
        <time>2020-09-07T20:09:31Z</time>
      </trkpt>
      <trkpt lat="45.13108" lon="6.09431">
        <ele>2123</ele>
        <time>2020-09-07T20:09:54Z</time>
      </trkpt>
      <trkpt lat="45.13099" lon="6.09438">
        <ele>2125</ele>
        <time>2020-09-07T20:10:08Z</time>
      </trkpt>
      <trkpt lat="45.13085" lon="6.09462">
        <ele>2129</ele>
        <time>2020-09-07T20:10:37Z</time>
      </trkpt>
      <trkpt lat="45.13072" lon="6.09461">
        <ele>2131</ele>
        <time>2020-09-07T20:10:54Z</time>
      </trkpt>
      <trkpt lat="45.13064" lon="6.0945">
        <ele>2131</ele>
        <time>2020-09-07T20:11:09Z</time>
      </trkpt>
      <trkpt lat="45.13058" lon="6.09434">
        <ele>2130</ele>
        <time>2020-09-07T20:11:26Z</time>
      </trkpt>
      <trkpt lat="45.13051" lon="6.09424">
        <ele>2130</ele>
        <time>2020-09-07T20:11:40Z</time>
      </trkpt>
      <trkpt lat="45.13043" lon="6.09421">
        <ele>2131</ele>
        <time>2020-09-07T20:11:51Z</time>
      </trkpt>
      <trkpt lat="45.13033" lon="6.0943">
        <ele>2134</ele>
        <time>2020-09-07T20:12:06Z</time>
      </trkpt>
      <trkpt lat="45.13024" lon="6.09442">
        <ele>2137</ele>
        <time>2020-09-07T20:12:23Z</time>
      </trkpt>
      <trkpt lat="45.13015" lon="6.09447">
        <ele>2139</ele>
        <time>2020-09-07T20:12:36Z</time>
      </trkpt>
      <trkpt lat="45.13008" lon="6.09441">
        <ele>2140</ele>
        <time>2020-09-07T20:12:47Z</time>
      </trkpt>
      <trkpt lat="45.12986" lon="6.09383">
        <ele>2138</ele>
        <time>2020-09-07T20:13:49Z</time>
      </trkpt>
      <trkpt lat="45.12965" lon="6.09373">
        <ele>2141</ele>
        <time>2020-09-07T20:14:18Z</time>
      </trkpt>
      <trkpt lat="45.12938" lon="6.09382">
        <ele>2147</ele>
        <time>2020-09-07T20:14:55Z</time>
      </trkpt>
      <trkpt lat="45.12922" lon="6.0939">
        <ele>2150</ele>
        <time>2020-09-07T20:15:18Z</time>
      </trkpt>
      <trkpt lat="45.12913" lon="6.0939">
        <ele>2152</ele>
        <time>2020-09-07T20:15:30Z</time>
      </trkpt>
      <trkpt lat="45.12885" lon="6.09366">
        <ele>2151</ele>
        <time>2020-09-07T20:16:14Z</time>
      </trkpt>
      <trkpt lat="45.12807" lon="6.09364">
        <ele>2155</ele>
        <time>2020-09-07T20:17:58Z</time>
      </trkpt>
      <trkpt lat="45.12714" lon="6.0934">
        <ele>2153</ele>
        <time>2020-09-07T20:20:04Z</time>
      </trkpt>
      <trkpt lat="45.12661" lon="6.09334">
        <ele>2154</ele>
        <time>2020-09-07T20:21:15Z</time>
      </trkpt>
      <trkpt lat="45.12644" lon="6.09328">
        <ele>2153</ele>
        <time>2020-09-07T20:21:38Z</time>
      </trkpt>
      <trkpt lat="45.12625" lon="6.09333">
        <ele>2154</ele>
        <time>2020-09-07T20:22:04Z</time>
      </trkpt>
      <trkpt lat="45.12607" lon="6.09334">
        <ele>2155</ele>
        <time>2020-09-07T20:22:28Z</time>
      </trkpt>
      <trkpt lat="45.12584" lon="6.09326">
        <ele>2154</ele>
        <time>2020-09-07T20:23:00Z</time>
      </trkpt>
      <trkpt lat="45.12557" lon="6.09306">
        <ele>2150</ele>
        <time>2020-09-07T20:23:40Z</time>
      </trkpt>
      <trkpt lat="45.12539" lon="6.09304">
        <ele>2150</ele>
        <time>2020-09-07T20:24:04Z</time>
      </trkpt>
      <trkpt lat="45.12516" lon="6.09308">
        <ele>2151</ele>
        <time>2020-09-07T20:24:35Z</time>
      </trkpt>
      <trkpt lat="45.12478" lon="6.09304">
        <ele>2151</ele>
        <time>2020-09-07T20:25:26Z</time>
      </trkpt>
      <trkpt lat="45.12459" lon="6.09296">
        <ele>2150</ele>
        <time>2020-09-07T20:25:53Z</time>
      </trkpt>
      <trkpt lat="45.12394" lon="6.09296">
        <ele>2150</ele>
        <time>2020-09-07T20:27:19Z</time>
      </trkpt>
      <trkpt lat="45.12335" lon="6.09292">
        <ele>2149</ele>
        <time>2020-09-07T20:28:38Z</time>
      </trkpt>
      <trkpt lat="45.12316" lon="6.09287">
        <ele>2148</ele>
        <time>2020-09-07T20:29:04Z</time>
      </trkpt>
      <trkpt lat="45.12303" lon="6.09275">
        <ele>2146</ele>
        <time>2020-09-07T20:29:25Z</time>
      </trkpt>
      <trkpt lat="45.12276" lon="6.09258">
        <ele>2144</ele>
        <time>2020-09-07T20:30:04Z</time>
      </trkpt>
      <trkpt lat="45.12218" lon="6.09244">
        <ele>2141</ele>
        <time>2020-09-07T20:31:23Z</time>
      </trkpt>
      <trkpt lat="45.12207" lon="6.0925">
        <ele>2141</ele>
        <time>2020-09-07T20:31:38Z</time>
      </trkpt>
      <trkpt lat="45.12209" lon="6.09284">
        <ele>2149</ele>
        <time>2020-09-07T20:32:11Z</time>
      </trkpt>
      <trkpt lat="45.12205" lon="6.09298">
        <ele>2153</ele>
        <time>2020-09-07T20:32:25Z</time>
      </trkpt>
      <trkpt lat="45.12185" lon="6.09295">
        <ele>2155</ele>
        <time>2020-09-07T20:32:52Z</time>
      </trkpt>
      <trkpt lat="45.12111" lon="6.09256">
        <ele>2151</ele>
        <time>2020-09-07T20:34:37Z</time>
      </trkpt>
      <trkpt lat="45.12079" lon="6.09243">
        <ele>2148</ele>
        <time>2020-09-07T20:35:21Z</time>
      </trkpt>
      <trkpt lat="45.1206" lon="6.0924">
        <ele>2153</ele>
        <time>2020-09-07T20:35:47Z</time>
      </trkpt>
      <trkpt lat="45.1204" lon="6.09228">
        <ele>2153</ele>
        <time>2020-09-07T20:36:16Z</time>
      </trkpt>
      <trkpt lat="45.12023" lon="6.0923">
        <ele>2159</ele>
        <time>2020-09-07T20:36:39Z</time>
      </trkpt>
      <trkpt lat="45.12012" lon="6.09227">
        <ele>2160</ele>
        <time>2020-09-07T20:36:54Z</time>
      </trkpt>
      <trkpt lat="45.11989" lon="6.09211">
        <ele>2158</ele>
        <time>2020-09-07T20:37:28Z</time>
      </trkpt>
      <trkpt lat="45.11966" lon="6.09186">
        <ele>2148</ele>
        <time>2020-09-07T20:38:06Z</time>
      </trkpt>
      <trkpt lat="45.11952" lon="6.09174">
        <ele>2142</ele>
        <time>2020-09-07T20:38:28Z</time>
      </trkpt>
      <trkpt lat="45.11936" lon="6.09172">
        <ele>2144</ele>
        <time>2020-09-07T20:38:50Z</time>
      </trkpt>
      <trkpt lat="45.11902" lon="6.09189">
        <ele>2170</ele>
        <time>2020-09-07T20:39:38Z</time>
      </trkpt>
      <trkpt lat="45.1189" lon="6.09189">
        <ele>2172</ele>
        <time>2020-09-07T20:39:54Z</time>
      </trkpt>
      <trkpt lat="45.11873" lon="6.09177">
        <ele>2162</ele>
        <time>2020-09-07T20:40:19Z</time>
      </trkpt>
      <trkpt lat="45.11865" lon="6.0916">
        <ele>2150</ele>
        <time>2020-09-07T20:40:38Z</time>
      </trkpt>
      <trkpt lat="45.11856" lon="6.09147">
        <ele>2147</ele>
        <time>2020-09-07T20:40:56Z</time>
      </trkpt>
      <trkpt lat="45.11786" lon="6.09127">
        <ele>2147</ele>
        <time>2020-09-07T20:42:31Z</time>
      </trkpt>
      <trkpt lat="45.11729" lon="6.09117">
        <ele>2146</ele>
        <time>2020-09-07T20:43:48Z</time>
      </trkpt>
      <trkpt lat="45.1172" lon="6.09122">
        <ele>2147</ele>
        <time>2020-09-07T20:44:00Z</time>
      </trkpt>
      <trkpt lat="45.11717" lon="6.09107">
        <ele>2143</ele>
        <time>2020-09-07T20:44:15Z</time>
      </trkpt>
      <trkpt lat="45.11676" lon="6.09021">
        <ele>2128</ele>
        <time>2020-09-07T20:45:53Z</time>
      </trkpt>
      <trkpt lat="45.11676" lon="6.09021">
        <ele>2128</ele>
        <time>2020-09-07T20:45:53Z</time>
      </trkpt>
      <trkpt lat="45.1163" lon="6.08959">
        <ele>2107</ele>
        <time>2020-09-07T20:47:18Z</time>
      </trkpt>
      <trkpt lat="45.1163" lon="6.08959">
        <ele>2107</ele>
        <time>2020-09-07T20:47:18Z</time>
      </trkpt>
      <trkpt lat="45.11569" lon="6.08894">
        <ele>2092</ele>
        <time>2020-09-07T20:48:59Z</time>
      </trkpt>
      <trkpt lat="45.11569" lon="6.08894">
        <ele>2092</ele>
        <time>2020-09-07T20:48:59Z</time>
      </trkpt>
      <trkpt lat="45.11578" lon="6.08827">
        <ele>2079</ele>
        <time>2020-09-07T20:50:04Z</time>
      </trkpt>
      <trkpt lat="45.11578" lon="6.08827">
        <ele>2079</ele>
        <time>2020-09-07T20:50:04Z</time>
      </trkpt>
      <trkpt lat="45.11568" lon="6.08765">
        <ele>2078</ele>
        <time>2020-09-07T20:51:04Z</time>
      </trkpt>
      <trkpt lat="45.11568" lon="6.08765">
        <ele>2078</ele>
        <time>2020-09-07T20:51:04Z</time>
      </trkpt>
      <trkpt lat="45.11576" lon="6.08718">
        <ele>2079</ele>
        <time>2020-09-07T20:51:49Z</time>
      </trkpt>
      <trkpt lat="45.11576" lon="6.08718">
        <ele>2079</ele>
        <time>2020-09-07T20:51:49Z</time>
      </trkpt>
      <trkpt lat="45.11512" lon="6.08636">
        <ele>2082</ele>
        <time>2020-09-07T20:53:44Z</time>
      </trkpt>
      <trkpt lat="45.11515" lon="6.08629">
        <ele>2081</ele>
        <time>2020-09-07T20:53:52Z</time>
      </trkpt>
      <trkpt lat="45.1151" lon="6.08624">
        <ele>2081</ele>
        <time>2020-09-07T20:54:00Z</time>
      </trkpt>
      <trkpt lat="45.11499" lon="6.08634">
        <ele>2082</ele>
        <time>2020-09-07T20:54:18Z</time>
      </trkpt>
      <trkpt lat="45.11466" lon="6.0863">
        <ele>2081</ele>
        <time>2020-09-07T20:55:02Z</time>
      </trkpt>
      <trkpt lat="45.1144" lon="6.0862">
        <ele>2080</ele>
        <time>2020-09-07T20:55:38Z</time>
      </trkpt>
      <trkpt lat="45.11416" lon="6.08599">
        <ele>2078</ele>
        <time>2020-09-07T20:56:16Z</time>
      </trkpt>
      <trkpt lat="45.11394" lon="6.08596">
        <ele>2076</ele>
        <time>2020-09-07T20:56:45Z</time>
      </trkpt>
      <trkpt lat="45.11376" lon="6.0858">
        <ele>2074</ele>
        <time>2020-09-07T20:57:13Z</time>
      </trkpt>
      <trkpt lat="45.11328" lon="6.08554">
        <ele>2072</ele>
        <time>2020-09-07T20:58:22Z</time>
      </trkpt>
      <trkpt lat="45.11287" lon="6.08542">
        <ele>2068</ele>
        <time>2020-09-07T20:59:18Z</time>
      </trkpt>
      <trkpt lat="45.11241" lon="6.08512">
        <ele>2061</ele>
        <time>2020-09-07T21:00:25Z</time>
      </trkpt>
      <trkpt lat="45.11223" lon="6.08507">
        <ele>2059</ele>
        <time>2020-09-07T21:00:50Z</time>
      </trkpt>
      <trkpt lat="45.11181" lon="6.08478">
        <ele>2055</ele>
        <time>2020-09-07T21:01:52Z</time>
      </trkpt>
      <trkpt lat="45.11139" lon="6.08458">
        <ele>2052</ele>
        <time>2020-09-07T21:02:51Z</time>
      </trkpt>
      <trkpt lat="45.11115" lon="6.08439">
        <ele>2050</ele>
        <time>2020-09-07T21:03:28Z</time>
      </trkpt>
      <trkpt lat="45.11092" lon="6.08429">
        <ele>2048</ele>
        <time>2020-09-07T21:04:00Z</time>
      </trkpt>
      <trkpt lat="45.1108" lon="6.08404">
        <ele>2046</ele>
        <time>2020-09-07T21:04:29Z</time>
      </trkpt>
      <trkpt lat="45.11074" lon="6.0838">
        <ele>2047</ele>
        <time>2020-09-07T21:04:53Z</time>
      </trkpt>
      <trkpt lat="45.1103" lon="6.08367">
        <ele>2044</ele>
        <time>2020-09-07T21:05:53Z</time>
      </trkpt>
      <trkpt lat="45.11004" lon="6.08352">
        <ele>2042</ele>
        <time>2020-09-07T21:06:30Z</time>
      </trkpt>
      <trkpt lat="45.10978" lon="6.08333">
        <ele>2038</ele>
        <time>2020-09-07T21:07:09Z</time>
      </trkpt>
      <trkpt lat="45.10963" lon="6.08333">
        <ele>2037</ele>
        <time>2020-09-07T21:07:29Z</time>
      </trkpt>
      <trkpt lat="45.10939" lon="6.08324">
        <ele>2035</ele>
        <time>2020-09-07T21:08:02Z</time>
      </trkpt>
      <trkpt lat="45.1093" lon="6.08294">
        <ele>2034</ele>
        <time>2020-09-07T21:08:33Z</time>
      </trkpt>
      <trkpt lat="45.10929" lon="6.08263">
        <ele>2033</ele>
        <time>2020-09-07T21:09:02Z</time>
      </trkpt>
      <trkpt lat="45.10928" lon="6.08251">
        <ele>2033</ele>
        <time>2020-09-07T21:09:14Z</time>
      </trkpt>
      <trkpt lat="45.10926" lon="6.08233">
        <ele>2031</ele>
        <time>2020-09-07T21:09:31Z</time>
      </trkpt>
      <trkpt lat="45.1092" lon="6.08216">
        <ele>2029</ele>
        <time>2020-09-07T21:09:49Z</time>
      </trkpt>
      <trkpt lat="45.10908" lon="6.08207">
        <ele>2029</ele>
        <time>2020-09-07T21:10:07Z</time>
      </trkpt>
      <trkpt lat="45.10895" lon="6.08208">
        <ele>2029</ele>
        <time>2020-09-07T21:10:24Z</time>
      </trkpt>
      <trkpt lat="45.10882" lon="6.08211">
        <ele>2030</ele>
        <time>2020-09-07T21:10:42Z</time>
      </trkpt>
      <trkpt lat="45.1085" lon="6.08211">
        <ele>2031</ele>
        <time>2020-09-07T21:11:24Z</time>
      </trkpt>
      <trkpt lat="45.10851" lon="6.08227">
        <ele>2031</ele>
        <time>2020-09-07T21:11:39Z</time>
      </trkpt>
      <trkpt lat="45.10864" lon="6.08178">
        <ele>2029</ele>
        <time>2020-09-07T21:12:29Z</time>
      </trkpt>
      <trkpt lat="45.10864" lon="6.08178">
        <ele>2029</ele>
        <time>2020-09-07T21:12:29Z</time>
      </trkpt>
      <trkpt lat="45.10914" lon="6.08013">
        <ele>1981</ele>
        <time>2020-09-07T21:15:18Z</time>
      </trkpt>
      <trkpt lat="45.10914" lon="6.08013">
        <ele>1981</ele>
        <time>2020-09-07T21:15:18Z</time>
      </trkpt>
      <trkpt lat="45.10866" lon="6.07955">
        <ele>1974</ele>
        <time>2020-09-07T21:16:42Z</time>
      </trkpt>
      <trkpt lat="45.10866" lon="6.07955">
        <ele>1974</ele>
        <time>2020-09-07T21:16:42Z</time>
      </trkpt>
      <trkpt lat="45.10862" lon="6.07903">
        <ele>1967</ele>
        <time>2020-09-07T21:17:31Z</time>
      </trkpt>
      <trkpt lat="45.10865" lon="6.079">
        <ele>1965</ele>
        <time>2020-09-07T21:17:36Z</time>
      </trkpt>
      <trkpt lat="45.10862" lon="6.0789">
        <ele>1966</ele>
        <time>2020-09-07T21:17:47Z</time>
      </trkpt>
      <trkpt lat="45.10857" lon="6.07857">
        <ele>1967</ele>
        <time>2020-09-07T21:18:18Z</time>
      </trkpt>
      <trkpt lat="45.10853" lon="6.07852">
        <ele>1968</ele>
        <time>2020-09-07T21:18:26Z</time>
      </trkpt>
      <trkpt lat="45.10848" lon="6.07853">
        <ele>1971</ele>
        <time>2020-09-07T21:18:32Z</time>
      </trkpt>
      <trkpt lat="45.10841" lon="6.07863">
        <ele>1974</ele>
        <time>2020-09-07T21:18:46Z</time>
      </trkpt>
      <trkpt lat="45.10832" lon="6.07891">
        <ele>1978</ele>
        <time>2020-09-07T21:19:14Z</time>
      </trkpt>
      <trkpt lat="45.10824" lon="6.07947">
        <ele>1985</ele>
        <time>2020-09-07T21:20:08Z</time>
      </trkpt>
      <trkpt lat="45.10825" lon="6.07963">
        <ele>1987</ele>
        <time>2020-09-07T21:20:23Z</time>
      </trkpt>
      <trkpt lat="45.10821" lon="6.07967">
        <ele>1989</ele>
        <time>2020-09-07T21:20:30Z</time>
      </trkpt>
      <trkpt lat="45.10814" lon="6.07966">
        <ele>1992</ele>
        <time>2020-09-07T21:20:39Z</time>
      </trkpt>
      <trkpt lat="45.1081" lon="6.07959">
        <ele>1992</ele>
        <time>2020-09-07T21:20:48Z</time>
      </trkpt>
      <trkpt lat="45.10796" lon="6.07913">
        <ele>1992</ele>
        <time>2020-09-07T21:21:35Z</time>
      </trkpt>
      <trkpt lat="45.10794" lon="6.07889">
        <ele>1992</ele>
        <time>2020-09-07T21:21:58Z</time>
      </trkpt>
      <trkpt lat="45.10796" lon="6.07852">
        <ele>1991</ele>
        <time>2020-09-07T21:22:33Z</time>
      </trkpt>
      <trkpt lat="45.10801" lon="6.07822">
        <ele>1990</ele>
        <time>2020-09-07T21:23:02Z</time>
      </trkpt>
      <trkpt lat="45.10829" lon="6.07715">
        <ele>1994</ele>
        <time>2020-09-07T21:24:49Z</time>
      </trkpt>
      <trkpt lat="45.10829" lon="6.0771">
        <ele>1994</ele>
        <time>2020-09-07T21:24:54Z</time>
      </trkpt>
      <trkpt lat="45.10826" lon="6.07703">
        <ele>1995</ele>
        <time>2020-09-07T21:25:02Z</time>
      </trkpt>
      <trkpt lat="45.1081" lon="6.07685">
        <ele>1996</ele>
        <time>2020-09-07T21:25:29Z</time>
      </trkpt>
      <trkpt lat="45.1081" lon="6.07674">
        <ele>1997</ele>
        <time>2020-09-07T21:25:39Z</time>
      </trkpt>
      <trkpt lat="45.10812" lon="6.07659">
        <ele>1997</ele>
        <time>2020-09-07T21:25:54Z</time>
      </trkpt>
      <trkpt lat="45.10825" lon="6.07626">
        <ele>1995</ele>
        <time>2020-09-07T21:26:29Z</time>
      </trkpt>
      <trkpt lat="45.10841" lon="6.07597">
        <ele>1995</ele>
        <time>2020-09-07T21:27:04Z</time>
      </trkpt>
      <trkpt lat="45.10854" lon="6.07586">
        <ele>1996</ele>
        <time>2020-09-07T21:27:24Z</time>
      </trkpt>
      <trkpt lat="45.10858" lon="6.07582">
        <ele>1996</ele>
        <time>2020-09-07T21:27:31Z</time>
      </trkpt>
      <trkpt lat="45.10858" lon="6.0757">
        <ele>1995</ele>
        <time>2020-09-07T21:27:42Z</time>
      </trkpt>
      <trkpt lat="45.1087" lon="6.07535">
        <ele>1993</ele>
        <time>2020-09-07T21:28:19Z</time>
      </trkpt>
      <trkpt lat="45.1087" lon="6.07528">
        <ele>1993</ele>
        <time>2020-09-07T21:28:25Z</time>
      </trkpt>
      <trkpt lat="45.10876" lon="6.07502">
        <ele>1991</ele>
        <time>2020-09-07T21:28:51Z</time>
      </trkpt>
      <trkpt lat="45.10891" lon="6.0748">
        <ele>1991</ele>
        <time>2020-09-07T21:29:20Z</time>
      </trkpt>
      <trkpt lat="45.10915" lon="6.07424">
        <ele>1989</ele>
        <time>2020-09-07T21:30:21Z</time>
      </trkpt>
      <trkpt lat="45.10947" lon="6.07376">
        <ele>1985</ele>
        <time>2020-09-07T21:31:24Z</time>
      </trkpt>
      <trkpt lat="45.1095" lon="6.0737">
        <ele>1984</ele>
        <time>2020-09-07T21:31:31Z</time>
      </trkpt>
      <trkpt lat="45.10949" lon="6.0736">
        <ele>1983</ele>
        <time>2020-09-07T21:31:40Z</time>
      </trkpt>
      <trkpt lat="45.10946" lon="6.07354">
        <ele>1982</ele>
        <time>2020-09-07T21:31:47Z</time>
      </trkpt>
      <trkpt lat="45.10917" lon="6.07327">
        <ele>1979</ele>
        <time>2020-09-07T21:32:33Z</time>
      </trkpt>
      <trkpt lat="45.10907" lon="6.0731">
        <ele>1978</ele>
        <time>2020-09-07T21:32:54Z</time>
      </trkpt>
      <trkpt lat="45.10898" lon="6.07269">
        <ele>1974</ele>
        <time>2020-09-07T21:33:35Z</time>
      </trkpt>
      <trkpt lat="45.10895" lon="6.07219">
        <ele>1971</ele>
        <time>2020-09-07T21:34:22Z</time>
      </trkpt>
      <trkpt lat="45.10891" lon="6.07198">
        <ele>1971</ele>
        <time>2020-09-07T21:34:42Z</time>
      </trkpt>
      <trkpt lat="45.10888" lon="6.07175">
        <ele>1970</ele>
        <time>2020-09-07T21:35:04Z</time>
      </trkpt>
      <trkpt lat="45.10883" lon="6.07149">
        <ele>1970</ele>
        <time>2020-09-07T21:35:30Z</time>
      </trkpt>
      <trkpt lat="45.10879" lon="6.07136">
        <ele>1970</ele>
        <time>2020-09-07T21:35:43Z</time>
      </trkpt>
      <trkpt lat="45.10864" lon="6.07112">
        <ele>1970</ele>
        <time>2020-09-07T21:36:13Z</time>
      </trkpt>
      <trkpt lat="45.10849" lon="6.07075">
        <ele>1970</ele>
        <time>2020-09-07T21:36:54Z</time>
      </trkpt>
      <trkpt lat="45.10833" lon="6.07057">
        <ele>1970</ele>
        <time>2020-09-07T21:37:21Z</time>
      </trkpt>
      <trkpt lat="45.10815" lon="6.07047">
        <ele>1969</ele>
        <time>2020-09-07T21:37:47Z</time>
      </trkpt>
      <trkpt lat="45.10803" lon="6.07032">
        <ele>1969</ele>
        <time>2020-09-07T21:38:08Z</time>
      </trkpt>
      <trkpt lat="45.10787" lon="6.07023">
        <ele>1968</ele>
        <time>2020-09-07T21:38:31Z</time>
      </trkpt>
      <trkpt lat="45.10818" lon="6.0703">
        <ele>1970</ele>
        <time>2020-09-07T21:39:13Z</time>
      </trkpt>
    </trkseg>
  </trk>
</gpx>